Fort Eustis, Felker Army Air Field (KFAF)

NameFelker Army Air Field
CityFort Eustis
CountryUnited States
ICAOKFAF
IATAFAF
Altitude4 m
CoordinatesGoogle Map
Live Air TrafficLiveATC.net
METARKFAF 161656Z AUTO 27006KT 10SM -DZ BKN035 11/10 A2979 RMK AO2 DZE03RAB03E17DZB17 SLP091 P0000 T01110103 $
2018-12-16 16:56:00 Wind: West (270°) 3.09 m/s - Visibility: 16093.4 m - Weather: Light Drizzle - Temperature: 11 °C - Dew point: 10 °C - Humidity: 93.6% - Pressure: 1008.81 hPa

Sorry, no flights used the airport in this database.